Ryer Island, California
Current Conditions -  °F | °C
As of 10:33 PM on Friday 19 Dec 2014 (Local Time) from KSUU Reporting Station
Haze Haze  
Wind Chill: 52°   Ceiling: 700
Heat Index: 52°   Visibility: 4mi
Dew Point: 50°   Wind: 1mph
Humidity: 94%   Direction: 60°ENE
Pressure: 30.16"   Gusts: NA
Location:  38.2298°N, 121.579°W
Report Text: KSUU 200633Z AUTO 06001KT 4SM R03L/4500FT BR OVC007 11/10 A3016 RMK AO2 $
Loading
Personal Weather Stations






























Interactive Weather Map New forecast layout! Learn more

10-Day Weather Forecast

Advertisements
Track Severe Weather on mobile